Saint Joseph, Iowa
Current Conditions -  °F | °C
As of 10:55 PM on Saturday 20 Dec 2014 (Local Time) from KAXA Reporting Station
Haze Haze  
Wind Chill: 23°   Ceiling: 700
Heat Index: 34°   Visibility: 6mi
Dew Point: 32°   Wind: 17mph
Humidity: 93%   Direction: 170°S
Pressure: 30.04"   Gusts: NA
Location:  42.8572°N, 94.2676°W
Report Text: KAXA 210455Z AUTO 17015KT 6SM BR OVC007 01/00 A3004 RMK AO2
Loading
Personal Weather Stations






























Interactive Weather Map New forecast layout! Learn more

10-Day Weather Forecast

Advertisements
Track Severe Weather on mobile